<<    April 2012    >>
Datum    Temp.       Tempmin      Tempmax    Taup.       Taup.min      Taup.max    Feuchte    Feuchtemin    Feuchtemax    Druck    Druckmin    Druckmax    Regen    Wind    Benmax  
  01.04.2012  5,3    -1,0    06:57    11,3    14:48  -2,8    -5,6    00:19    0,5    10:23  57,8    38    14:36    82    08:52  1020,3    1017    18:33    1023    03:02  0,0  2,2  16,2  
  02.04.2012  8,1    1,4    04:40    14,2    15:58  0,8    -2,5    04:40    3,0    15:46  61,1    45    15:59    79    05:51  1012,8    1007    20:02    1018    00:00  0,0  1,3  13,7  
  03.04.2012  11,3    4,6    06:15    18,8    16:03  2,4    0,7    20:20    4,9    11:26  57,1    34    15:21    82    07:23  1004,5    1001    17:16    1008    00:00  0,0  1,2  12,2  
  04.04.2012  10,4    7,0    23:07    13,7    14:31  6,0    3,0    00:00    7,3    08:56  74,6    58    14:52    90    23:28  1007,6    1001    00:16    1014    22:46  0,0  1,6  11,5  
  05.04.2012  8,4    7,5    05:21    9,3    13:20  3,3    1,4    22:45    6,4    00:05  71,0    61    16:00    90    00:00  1016,6    1013    00:16    1019    21:01  0,0  3,2  12,6  
  06.04.2012  8,6    6,1    07:09    12,2    16:27  0,2    -5,4    23:11    3,0    09:10  57,1    38    22:58    77    07:44  1013,9    1009    19:31    1018    00:00  0,0  2,7  13,7  
  07.04.2012  6,2    4,1    04:18    9,6    16:13  -0,9    -6,2    23:59    5,2    12:45  63,7    37    15:55    92    07:32  1010,3    1008    05:16    1014    23:15  3,0  3,9  24,5  
  08.04.2012  6,4    2,7    04:59    11,1    16:46  -5,8    -8,4    01:45    -3,4    22:01  41,6    33    16:48    51    07:27  1015,9    1013    00:31    1019    11:30  0,0  2,0  13,0  
  09.04.2012  8,3    5,5    05:22    10,9    15:42  6,0    -4,4    00:00    9,6    15:10  87,0    42    00:00    98    18:55  1005,4    999    23:15    1013    00:00  14,2  2,3  11,9  
  10.04.2012  11,7    8,8    23:22    16,1    15:58  7,0    4,2    16:55    9,3    04:19  75,0    47    16:02    98    00:00  996,0    994    16:46    1001    00:00  1,8  4,3  19,4  
  11.04.2012  10,7    6,6    07:10    15,7    17:09  3,6    -1,4    19:39    7,8    00:43  65,9    34    17:13    96    04:05  1000,0    996    00:00    1003    13:30  0,9  2,0  17,6  
  12.04.2012  8,9    6,0    03:24    13,4    14:55  3,8    1,2    03:12    7,2    11:28  71,3    47    16:02    88    09:31  1003,5    1002    00:00    1006    21:44  2,1  1,1  15,5  
  13.04.2012  8,4    4,3    04:48    14,3    17:00  2,8    -0,1    20:30    5,5    11:42  70,0    42    17:23    90    05:16  1006,3    1005    00:29    1008    09:59  0,0  1,5  12,6  
  14.04.2012  8,4    2,8    06:30    15,9    15:20  2,8    0,3    15:30    5,3    19:49  70,0    36    15:23    90    07:47  1006,0    1005    00:00    1008    23:15  0,0  1,9  17,3  
  15.04.2012  8,3    6,5    23:54    10,2    16:59  2,8    -2,5    23:21    6,2    02:39  69,7    51    22:45    89    02:39  1012,4    1007    00:43    1020    23:59  0,9  5,6  23,0  
  16.04.2012  6,6    2,4    06:15    10,6    13:21  -2,6    -5,7    20:57    1,1    10:12  53,9    36    17:09    81    07:29  1021,3    1019    01:13    1023    21:13  0,0  4,4  19,8  
  17.04.2012  7,0    -0,5    05:30    14,0    15:27  -3,1    -5,6    19:21    1,8    23:49  52,8    28    15:48    79    06:59  1012,3    1003    18:58    1022    00:00  0,0  3,1  21,2  
  18.04.2012  9,3    4,6    05:55    13,9    14:55  2,2    0,9    05:55    5,1    15:37  62,1    44    14:59    82    07:53  996,0    990    22:28    1003    00:00  0,9  4,5  20,9  
  19.04.2012  11,1    7,7    23:59    15,1    15:42  2,6    0,9    04:59    5,1    12:25  57,0    41    15:59    81    08:31  991,5    989    06:58    995    22:27  0,0  3,9  15,8  
  20.04.2012  10,5    5,5    04:51    17,4    14:27  2,8    -0,1    15:09    5,3    20:14  62,1    33    14:30    85    07:25  996,7    994    00:00    1000    21:42  0,9  2,3  15,5  
  21.04.2012  9,2    6,1    23:59    12,9    16:56  4,0    0,9    19:33    7,3    09:54  71,3    46    19:07    98    22:38  1000,4    999    02:42    1005    23:57  4,0  2,7  16,9  
  22.04.2012  9,0    4,8    02:13    14,7    16:14  4,4    0,5    16:53    8,7    09:11  75,6    40    16:28    98    00:00  1006,1    1004    00:28    1008    10:42  0,9  2,6  20,5  
  23.04.2012  10,0    4,3    06:17    15,2    16:29  2,0    -0,6    20:48    4,7    08:45  60,3    36    16:31    87    06:42  1002,8    997    23:59    1007    00:00  0,0  3,8  19,4  
  24.04.2012  10,0    8,1    05:48    12,2    12:21  5,7    2,7    09:58    9,2    18:34  74,9    58    09:47    89    18:34  996,8    995    02:11    1002    23:41  2,7  2,7  19,1  
  25.04.2012  10,9    7,6    07:04    14,7    13:27  5,8    2,9    12:43    8,5    23:13  72,9    46    13:21    92    01:34  1001,3    999    18:56    1003    04:11  1,2  4,1  19,1  
  26.04.2012  12,5    9,9    07:00    15,8    14:23  5,9    1,6    17:26    10,0    03:18  66,8    40    17:26    98    03:18  1005,0    999    00:00    1012    22:11  3,7  5,0  25,6  
  27.04.2012  14,0    11,0    05:52    19,0    15:06  5,9    3,7    13:30    12,1    23:37  59,7    38    15:12    98    23:37  1015,2    1011    00:26    1018    21:11  0,9  2,6  16,9  
  28.04.2012  18,7    12,0    00:18    28,4    16:17  11,5    6,3    18:47    14,8    11:42  70,0    27    17:26    98    02:06  1011,3    1007    23:59    1017    00:00  6,6  2,1  18,0  
  29.04.2012  17,3    13,8    04:41    23,8    16:06  11,6    5,8    16:36    15,8    12:59  71,9    35    16:25    94    08:19  1006,0    1001    08:25    1012    23:59  0,0  1,6  17,6  
  30.04.2012  18,1    10,8    06:00    23,7    16:44  8,4    4,6    13:05    11,9    08:57  58,2    30    16:56    93    06:42  1014,7    1011    22:55    1018    07:11  0,0  2,5  20,9  
 
  Gesamt  10,1  -1,0            28,4            3,3  -8,4            15,8            65,4  27            98            1007,0  989            1023            44,6  2,8  25,6  
 
  Mittelwert  10,1  6,0            14,9            3,3  -0,2            6,6            65,4  40,7            88,2            1007,0  1003,2            1011,2            1,5  2,8  17,4  
  Minimum  5,3  -1,0            9,3            -5,8  -8,4            -3,4            41,6  27,0            51,0            991,5  989,0            995,0            0,0  1,1  11,5  
  Maximum  18,7  13,8            28,4            11,6  6,3            15,8            87,0  61,0            98,0            1021,3  1019,0            1023,0            14,2  5,6  25,6  

  Heie Tage    Tmax >=30C     0  
  Sommertage    Tmax >=25C     1  
  Warme Tage    Tmax >=20C     3  
  Kalte Tage    Tmax  <10C     2  
  Frosttage    Tmin  <0C     2  
  Eistage    Tmax  <0C     0  
  Regentage > 0 mm    15  
  Regentage > 2 mm    7  
  Regentage > 10 mm    1  
  Regentage > 20 mm    0